Observation data for Morton on 07/13/2020      Previous  Date  Next       Current Mesonet Observations  Soil Data  Daily Summary Page  Observations in Plain Language
KMNS 130500Z 20009KT 30/M00 A3001 RMK A01 T03021001  RH  014%=      5-min Rain = 0
KMNS 130505Z 20009KT 30/M00 A3001 RMK A01 T02981001  RH  015%=      5-min Rain = 0
KMNS 130510Z 19010KT 30/M01 A3001 RMK A01 T02971006  RH  014%=      5-min Rain = 0
KMNS 130515Z 19010KT 29/M01 A30 RMK A01 T02931005  RH  015%=      5-min Rain = 0
KMNS 130520Z 20011KT 30/M01 A30 RMK A01 T02991012  RH  013%=      5-min Rain = 0
KMNS 130525Z 19010KT 30/M01 A30 RMK A01 T02971013  RH  013%=      5-min Rain = 0
KMNS 130530Z 20012KT 30/M02 A30 RMK A01 T02991015  RH  013%=      5-min Rain = 0
KMNS 130535Z 20011KT 30/M01 A3001 RMK A01 T02991012  RH  013%=      5-min Rain = 0
KMNS 130540Z 20010KT 30/M01 A3001 RMK A01 T02991012  RH  013%=      5-min Rain = 0
KMNS 130545Z 20009KT 30/M02 A3001 RMK A01 T03021015  RH  013%=      5-min Rain = 0
KMNS 130550Z 21009KT 31/M02 A3001 RMK A01 T03061017  RH  012%=      5-min Rain = 0
KMNS 130555Z 21010KT 31/M02 A3001 RMK A01 T03091017  RH  012%=      5-min Rain = 0
KMNS 130600Z 19008KT 31/M01 A3001 RMK A01 T03061014  RH  013%=      5-min Rain = 0
KMNS 130605Z 19008KT 30/M01 A3001 RMK A01 T02961010  RH  014%=      5-min Rain = 0
KMNS 130610Z 18008KT 30/M01 A3001 RMK A01 T02991010  RH  014%=      5-min Rain = 0
KMNS 130615Z 18009KT 30/M01 A3001 RMK A01 T03041008  RH  013%=      5-min Rain = 0
KMNS 130620Z 18009KT 31/M01 A30 RMK A01 T03061005  RH  014%=      5-min Rain = 0
KMNS 130625Z 18009KT 30/M00 A3001 RMK A01 T03031002  RH  014%=      5-min Rain = 0
KMNS 130630Z 18008KT 30/00 A3001 RMK A01 T02990002  RH  015%=      5-min Rain = 0
KMNS 130635Z 19008KT 30/01 A3001 RMK A01 T02990005  RH  015%=      5-min Rain = 0
KMNS 130640Z 19007KT 30/01 A3001 RMK A01 T02960008  RH  016%=      5-min Rain = 0
KMNS 130645Z 20008KT 29/01 A3001 RMK A01 T02940009  RH  016%=      5-min Rain = 0
KMNS 130650Z 19009KT 29/01 A3001 RMK A01 T02910011  RH  017%=      5-min Rain = 0
KMNS 130655Z 19008KT 29/01 A3001 RMK A01 T02880013  RH  017%=      5-min Rain = 0
KMNS 130700Z 20007KT 29/01 A3001 RMK A01 T02860014  RH  017%=      5-min Rain = 0
KMNS 130705Z 19007KT 28/02 A3001 RMK A01 T02840015  RH  018%=      5-min Rain = 0
KMNS 130710Z 18005KT 28/02 A3001 RMK A01 T02820017  RH  018%=      5-min Rain = 0
KMNS 130715Z 18006KT 28/02 A3001 RMK A01 T02820018  RH  019%=      5-min Rain = 0
KMNS 130720Z 18006KT 28/02 A3001 RMK A01 T02830020  RH  019%=      5-min Rain = 0
KMNS 130725Z 17006KT 28/02 A30 RMK A01 T02840020  RH  019%=      5-min Rain = 0
KMNS 130730Z 16006KT 29/02 A30 RMK A01 T02880018  RH  018%=      5-min Rain = 0
KMNS 130735Z 14008KT 28/02 A2999 RMK A01 T02840016  RH  018%=      5-min Rain = 0
KMNS 130740Z 15009KT 28/02 A2999 RMK A01 T02830016  RH  018%=      5-min Rain = 0
KMNS 130745Z 15008KT 28/02 A2999 RMK A01 T02840018  RH  018%=      5-min Rain = 0
KMNS 130750Z 16008KT 29/02 A30 RMK A01 T02880018  RH  018%=      5-min Rain = 0
KMNS 130755Z 18007KT 29/02 A3001 RMK A01 T02900019  RH  018%=      5-min Rain = 0
KMNS 130800Z 30009G14KT 29/02 A3003 RMK A01 T02890023  RH  018%=      5-min Rain = 0
KMNS 130805Z 31011G21KT 30/02 A3003 RMK A01 T03000020  RH  017%=      5-min Rain = 0
KMNS 130810Z 32007KT 30/02 A3003 RMK A01 T03000016  RH  016%=      5-min Rain = 0
KMNS 130815Z 19011G20KT 31/02 A3002 RMK A01 T03140024  RH  016%=      5-min Rain = 0
KMNS 130820Z 20012G22KT 31/02 A3002 RMK A01 T03140024  RH  016%=      5-min Rain = 0
KMNS 130825Z 19011G20KT 31/03 A3001 RMK A01 T03130026  RH  016%=      5-min Rain = 0
KMNS 130830Z 20006KT 31/03 A3001 RMK A01 T03120026  RH  017%=      5-min Rain = 0
KMNS 130835Z 18004KT 31/03 A3001 RMK A01 T03070027  RH  017%=      5-min Rain = 0
KMNS 130840Z 19007G12KT 31/03 A3001 RMK A01 T03050028  RH  017%=      5-min Rain = 0
KMNS 130845Z 26007KT 30/03 A3002 RMK A01 T03000031  RH  018%=      5-min Rain = 0
KMNS 130850Z 31006KT 30/03 A3002 RMK A01 T02960033  RH  019%=      5-min Rain = 0
KMNS 130855Z 30004KT 29/04 A3002 RMK A01 T02900035  RH  020%=      5-min Rain = 0
KMNS 130900Z 26002KT 29/04 A3002 RMK A01 T02870038  RH  021%=      5-min Rain = 0
KMNS 130905Z 21001KT 29/04 A3002 RMK A01 T02880036  RH  020%=      5-min Rain = 0
KMNS 130910Z 09002KT 29/04 A3001 RMK A01 T02890035  RH  020%=      5-min Rain = 0
KMNS 130915Z 14004KT 28/04 A3001 RMK A01 T02830038  RH  021%=      5-min Rain = 0
KMNS 130920Z 17006KT 28/04 A3002 RMK A01 T02810043  RH  022%=      5-min Rain = 0
KMNS 130925Z 17005KT 29/04 A3002 RMK A01 T02860040  RH  021%=      5-min Rain = 0
KMNS 130930Z 16005KT 29/04 A3002 RMK A01 T02860040  RH  021%=      5-min Rain = 0
KMNS 130935Z 15006KT 29/04 A3001 RMK A01 T02870041  RH  021%=      5-min Rain = 0
KMNS 130940Z 16006KT 29/04 A3001 RMK A01 T02870041  RH  021%=      5-min Rain = 0
KMNS 130945Z 16008G13KT 29/04 A3001 RMK A01 T02880041  RH  021%=      5-min Rain = 0
KMNS 130950Z 19010KT 29/04 A3002 RMK A01 T02900044  RH  021%=      5-min Rain = 0
KMNS 130955Z 19008KT 29/05 A3002 RMK A01 T02910045  RH  021%=      5-min Rain = 0
KMNS 131000Z 19007KT 29/05 A3001 RMK A01 T02880052  RH  023%=      5-min Rain = 0
KMNS 131005Z 17006KT 29/05 A3001 RMK A01 T02850053  RH  023%=      5-min Rain = 0
KMNS 131010Z 19007KT 29/05 A3001 RMK A01 T02900053  RH  023%=      5-min Rain = 0
KMNS 131015Z 18007KT 30/06 A3001 RMK A01 T02950055  RH  022%=      5-min Rain = 0
KMNS 131020Z 19005KT 29/06 A3002 RMK A01 T02910056  RH  023%=      5-min Rain = 0
KMNS 131025Z 19006KT 29/06 A3002 RMK A01 T02880058  RH  024%=      5-min Rain = 0
KMNS 131030Z 18006KT 29/06 A3001 RMK A01 T02880058  RH  024%=      5-min Rain = 0
KMNS 131035Z 18005KT 29/06 A3001 RMK A01 T02870059  RH  024%=      5-min Rain = 0
KMNS 131040Z 17004KT 29/06 A3001 RMK A01 T02850060  RH  025%=      5-min Rain = 0
KMNS 131045Z 17006KT 28/06 A3001 RMK A01 T02840060  RH  025%=      5-min Rain = 0
KMNS 131050Z 17005KT 28/06 A3001 RMK A01 T02840062  RH  025%=      5-min Rain = 0
KMNS 131055Z 18004KT 28/06 A3001 RMK A01 T02810064  RH  026%=      5-min Rain = 0
KMNS 131100Z 18004KT 28/06 A3002 RMK A01 T02790064  RH  026%=      5-min Rain = 0
KMNS 131105Z 21003KT 28/07 A3002 RMK A01 T02760067  RH  027%=      5-min Rain = 0
KMNS 131110Z 21004KT 27/07 A3002 RMK A01 T02720069  RH  028%=      5-min Rain = 0
KMNS 131115Z 20005KT 27/07 A3002 RMK A01 T02710069  RH  028%=      5-min Rain = 0
KMNS 131120Z 20005KT 27/07 A3002 RMK A01 T02700070  RH  029%=      5-min Rain = 0
KMNS 131125Z 19005KT 27/07 A3002 RMK A01 T02700070  RH  029%=      5-min Rain = 0
KMNS 131130Z 19005KT 27/07 A3002 RMK A01 T02700070  RH  029%=      5-min Rain = 0
KMNS 131135Z 18005KT 27/07 A3002 RMK A01 T02700070  RH  029%=      5-min Rain = 0
KMNS 131140Z 17004KT 27/07 A3002 RMK A01 T02710069  RH  028%=      5-min Rain = 0
KMNS 131145Z 18006KT 27/07 A3001 RMK A01 T02720070  RH  029%=      5-min Rain = 0
KMNS 131150Z 19007KT 27/07 A3001 RMK A01 T02720071  RH  029%=      5-min Rain = 0
KMNS 131155Z 19008KT 27/07 A3001 RMK A01 T02710073  RH  029%=      5-min Rain = 0
KMNS 131200Z 20009KT 27/07 A3002 RMK A01 T02710074  RH  030%=      5-min Rain = 0
KMNS 131205Z 20008KT 27/07 A3002 RMK A01 T02710073  RH  029%=      5-min Rain = 0
KMNS 131210Z 21008KT 27/07 A3002 RMK A01 T02710073  RH  029%=      5-min Rain = 0
KMNS 131215Z 20007KT 27/07 A3002 RMK A01 T02720073  RH  029%=      5-min Rain = 0
KMNS 131220Z 20007KT 27/07 A3002 RMK A01 T02700074  RH  030%=      5-min Rain = 0
KMNS 131225Z 19007KT 27/08 A3001 RMK A01 T02680076  RH  030%=      5-min Rain = 0
KMNS 131230Z 19008KT 27/08 A3002 RMK A01 T02660078  RH  031%=      5-min Rain = 0
KMNS 131235Z 18007KT 27/08 A3001 RMK A01 T02670078  RH  031%=      5-min Rain = 0
KMNS 131240Z 20007KT 27/08 A3001 RMK A01 T02680078  RH  031%=      5-min Rain = 0
KMNS 131245Z 18009KT 27/08 A30 RMK A01 T02680081  RH  031%=      5-min Rain = 0
KMNS 131250Z 17012G17KT 27/08 A2999 RMK A01 T02740078  RH  030%=      5-min Rain = 0
KMNS 131255Z 19013G18KT 28/08 A30 RMK A01 T02780077  RH  029%=      5-min Rain = 0
KMNS 131300Z 20011KT 28/08 A30 RMK A01 T02770079  RH  029%=      5-min Rain = 0
KMNS 131305Z 20012KT 28/08 A3001 RMK A01 T02770079  RH  029%=      5-min Rain = 0
KMNS 131310Z 20012G17KT 28/08 A3001 RMK A01 T02800076  RH  028%=      5-min Rain = 0
KMNS 131315Z 20012KT 29/08 A3001 RMK A01 T02850076  RH  028%=      5-min Rain = 0
KMNS 131320Z 20013KT 29/08 A3001 RMK A01 T02880076  RH  027%=      5-min Rain = 0
KMNS 131325Z 20013KT 29/08 A30 RMK A01 T02890077  RH  027%=      5-min Rain = 0
KMNS 131330Z 20015KT 29/08 A30 RMK A01 T02910075  RH  027%=      5-min Rain = 0
KMNS 131335Z 20014KT 29/08 A30 RMK A01 T02920076  RH  027%=      5-min Rain = 0
KMNS 131340Z 20014G19KT 30/08 A30 RMK A01 T02950075  RH  026%=      5-min Rain = 0
KMNS 131345Z 19015KT 30/08 A30 RMK A01 T02960075  RH  026%=      5-min Rain = 0
KMNS 131350Z 19016KT 30/07 A2999 RMK A01 T02980074  RH  025%=      5-min Rain = 0
KMNS 131355Z 19017G22KT 30/07 A2999 RMK A01 T03010072  RH  024%=      5-min Rain = 0
KMNS 131400Z 19016G21KT 30/07 A30 RMK A01 T03010073  RH  025%=      5-min Rain = 0
KMNS 131405Z 19015KT 30/07 A30 RMK A01 T03010071  RH  024%=      5-min Rain = 0
KMNS 131410Z 20017KT 30/07 A2999 RMK A01 T03000070  RH  024%=      5-min Rain = 0
KMNS 131415Z 19017KT 30/07 A2999 RMK A01 T03010070  RH  024%=      5-min Rain = 0
KMNS 131420Z 19017G22KT 30/07 A2998 RMK A01 T03040068  RH  023%=      5-min Rain = 0
KMNS 131425Z 19018G24KT 31/07 A2998 RMK A01 T03060068  RH  023%=      5-min Rain = 0
KMNS 131430Z 19015G20KT 31/07 A2998 RMK A01 T03090069  RH  023%=      5-min Rain = 0
KMNS 131435Z 19017G25KT 31/07 A2998 RMK A01 T03120068  RH  022%=      5-min Rain = 0
KMNS 131440Z 20020G25KT 32/07 A2997 RMK A01 T03150067  RH  022%=      5-min Rain = 0
KMNS 131445Z 20021G28KT 31/07 A2997 RMK A01 T03130066  RH  022%=      5-min Rain = 0
KMNS 131450Z 20021G26KT 31/07 A2997 RMK A01 T03060067  RH  023%=      5-min Rain = 0
KMNS 131455Z 20022G27KT 30/07 A2997 RMK A01 T03020071  RH  024%=      5-min Rain = 0
KMNS 131500Z 20020G27KT 30/07 A2997 RMK A01 T03010074  RH  025%=      5-min Rain = 0
KMNS 131505Z 20019G24KT 30/07 A2997 RMK A01 T03020074  RH  025%=      5-min Rain = 0
KMNS 131510Z 20020G27KT 32/07 A2997 RMK A01 T03160071  RH  022%=      5-min Rain = 0
KMNS 131515Z 20020G25KT 32/07 A2997 RMK A01 T03230071  RH  021%=      5-min Rain = 0
KMNS 131520Z 20021G26KT 33/07 A2997 RMK A01 T03250069  RH  021%=      5-min Rain = 0
KMNS 131525Z 20019G27KT 33/07 A2997 RMK A01 T03270068  RH  021%=      5-min Rain = 0
KMNS 131530Z 20019G24KT 33/07 A2997 RMK A01 T03290069  RH  020%=      5-min Rain = 0
KMNS 131535Z 20018G23KT 32/07 A2997 RMK A01 T03230071  RH  021%=      5-min Rain = 0
KMNS 131540Z 20017G22KT 33/07 A2997 RMK A01 T03310070  RH  020%=      5-min Rain = 0
KMNS 131545Z 20018G23KT 34/06 A2997 RMK A01 T03390062  RH  018%=      5-min Rain = 0
KMNS 131550Z 20020KT 34/06 A2997 RMK A01 T03420056  RH  017%=      5-min Rain = 0
KMNS 131555Z 20018G23KT 35/05 A2997 RMK A01 T03520054  RH  016%=      5-min Rain = 0
KMNS 131600Z 21018G23KT 36/05 A2997 RMK A01 T03560052  RH  016%=      5-min Rain = 0
KMNS 131605Z 21018G23KT 35/05 A2997 RMK A01 T03510052  RH  016%=      5-min Rain = 0
KMNS 131610Z 21016G21KT 36/06 A2997 RMK A01 T03560055  RH  016%=      5-min Rain = 0
KMNS 131615Z 21016G21KT 36/06 A2997 RMK A01 T03610055  RH  015%=      5-min Rain = 0
KMNS 131620Z 21017G22KT 36/05 A2997 RMK A01 T03580050  RH  015%=      5-min Rain = 0
KMNS 131625Z 22019G25KT 36/04 A2997 RMK A01 T03620044  RH  014%=      5-min Rain = 0
KMNS 131630Z 22018KT 37/05 A2996 RMK A01 T03670045  RH  014%=      5-min Rain = 0
KMNS 131635Z 22016G23KT 37/04 A2996 RMK A01 T03700044  RH  014%=      5-min Rain = 0
KMNS 131640Z 21015G20KT 38/05 A2996 RMK A01 T03750045  RH  013%=      5-min Rain = 0
KMNS 131645Z 22016KT 37/04 A2996 RMK A01 T03700042  RH  013%=      5-min Rain = 0
KMNS 131650Z 21017G22KT 37/04 A2996 RMK A01 T03720042  RH  013%=      5-min Rain = 0
KMNS 131655Z 21016G21KT 38/04 A2996 RMK A01 T03820042  RH  013%=      5-min Rain = 0
KMNS 131700Z 22016KT 39/04 A2996 RMK A01 T03870037  RH  012%=      5-min Rain = 0
KMNS 131705Z 23016G21KT 39/03 A2996 RMK A01 T03910032  RH  011%=      5-min Rain = 0
KMNS 131710Z 22015G21KT 40/03 A2995 RMK A01 T03970027  RH  010%=      5-min Rain = 0
KMNS 131715Z 22016G23KT 40/02 A2995 RMK A01 T03950021  RH  010%=      5-min Rain = 0
KMNS 131720Z 24015G20KT 40/01 A2995 RMK A01 T03990011  RH  009%=      5-min Rain = 0
KMNS 131725Z 24016G21KT 40/01 A2995 RMK A01 T04000012  RH  009%=      5-min Rain = 0
KMNS 131730Z 22014G20KT 40/01 A2995 RMK A01 T03970013  RH  009%=      5-min Rain = 0
KMNS 131735Z 22013G20KT 40/01 A2994 RMK A01 T04020014  RH  009%=      5-min Rain = 0
KMNS 131740Z 25013G18KT 41/01 A2994 RMK A01 T04050014  RH  009%=      5-min Rain = 0
KMNS 131745Z 24013G19KT 40/02 A2994 RMK A01 T04040015  RH  009%=      5-min Rain = 0
KMNS 131750Z 22012G18KT 41/01 A2994 RMK A01 T04050014  RH  009%=      5-min Rain = 0
KMNS 131755Z 23016G21KT 41/02 A2994 RMK A01 T04090015  RH  009%=      5-min Rain = 0
KMNS 131800Z 23012G20KT 41/01 A2994 RMK A01 T04050014  RH  009%=      5-min Rain = 0
KMNS 131805Z 23011G16KT 41/01 A2994 RMK A01 T04110013  RH  009%=      5-min Rain = 0
KMNS 131810Z 21011G18KT 41/01 A2994 RMK A01 T04130013  RH  009%=      5-min Rain = 0
KMNS 131815Z 22010KT 41/01 A2993 RMK A01 T04080009  RH  009%=      5-min Rain = 0
KMNS 131820Z 24010G19KT 41/01 A2993 RMK A01 T04130009  RH  008%=      5-min Rain = 0
KMNS 131825Z 22014G21KT 41/01 A2993 RMK A01 T04140007  RH  008%=      5-min Rain = 0
KMNS 131830Z 24012G20KT 41/01 A2993 RMK A01 T04120007  RH  008%=      5-min Rain = 0
KMNS 131835Z 23011G20KT 41/01 A2993 RMK A01 T04120009  RH  008%=      5-min Rain = 0
KMNS 131840Z 20005G12KT 41/01 A2993 RMK A01 T04070005  RH  008%=      5-min Rain = 0
KMNS 131845Z 21007KT 41/01 A2993 RMK A01 T04120008  RH  008%=      5-min Rain = 0
KMNS 131850Z 24012G20KT 42/01 A2993 RMK A01 T04170007  RH  008%=      5-min Rain = 0
KMNS 131855Z 23012G20KT 41/00 A2993 RMK A01 T04130004  RH  008%=      5-min Rain = 0
KMNS 131900Z 25014G22KT 42/00 A2993 RMK A01 T04200002  RH  008%=      5-min Rain = 0
KMNS 131905Z 25012G19KT 42/00 A2993 RMK A01 T04150001  RH  008%=      5-min Rain = 0
KMNS 131910Z 24010G15KT 41/M00 A2993 RMK A01 T04051002  RH  008%=      5-min Rain = 0
KMNS 131915Z 23006KT 41/M00 A2992 RMK A01 T04081003  RH  008%=      5-min Rain = 0
KMNS 131920Z 22008G15KT 41/M00 A2992 RMK A01 T04131001  RH  008%=      5-min Rain = 0
KMNS 131925Z 22009G16KT 42/M00 A2992 RMK A01 T04201004  RH  007%=      5-min Rain = 0
KMNS 131930Z 23007G15KT 42/M01 A2992 RMK A01 T04181006  RH  007%=      5-min Rain = 0
KMNS 131935Z 21006KT 42/M01 A2992 RMK A01 T04151005  RH  007%=      5-min Rain = 0
KMNS 131940Z 21008G14KT 41/M01 A2991 RMK A01 T04131006  RH  007%=      5-min Rain = 0
KMNS 131945Z 22008G15KT 42/M01 A2991 RMK A01 T04161008  RH  007%=      5-min Rain = 0
KMNS 131950Z 23012G17KT 42/00 A2991 RMK A01 T04240000  RH  007%=      5-min Rain = 0
KMNS 131955Z 23008G16KT 42/00 A2991 RMK A01 T04190000  RH  008%=      5-min Rain = 0
KMNS 132000Z 22012G17KT 41/00 A299 RMK A01 T04100003  RH  008%=      5-min Rain = 0
KMNS 132005Z 23009G17KT 41/01 A299 RMK A01 T04070005  RH  008%=      5-min Rain = 0
KMNS 132010Z 27012G19KT 43/01 A299 RMK A01 T04280010  RH  008%=      5-min Rain = 0
KMNS 132015Z 28010G20KT 43/01 A299 RMK A01 T04270013  RH  008%=      5-min Rain = 0
KMNS 132020Z 28012KT 43/01 A299 RMK A01 T04270011  RH  008%=      5-min Rain = 0
KMNS 132025Z 25010G17KT 42/01 A299 RMK A01 T04200006  RH  008%=      5-min Rain = 0
KMNS 132030Z 25012G19KT 42/01 A2989 RMK A01 T04230008  RH  008%=      5-min Rain = 0
KMNS 132035Z 25010G18KT 43/01 A2989 RMK A01 T04300011  RH  008%=      5-min Rain = 0
KMNS 132040Z 26009G14KT 42/01 A2989 RMK A01 T04210006  RH  008%=      5-min Rain = 0
KMNS 132045Z 25013G19KT 42/01 A2989 RMK A01 T04170008  RH  008%=      5-min Rain = 0
KMNS 132050Z 23013G20KT 41/01 A2988 RMK A01 T04110007  RH  008%=      5-min Rain = 0
KMNS 132055Z 22009KT 42/01 A2988 RMK A01 T04150008  RH  008%=      5-min Rain = 0
KMNS 132100Z 20009G14KT 43/01 A2988 RMK A01 T04270007  RH  008%=      5-min Rain = 0
KMNS 132105Z 20009G16KT 42/01 A2988 RMK A01 T04240007  RH  008%=      5-min Rain = 0
KMNS 132110Z 22014G20KT 42/01 A2988 RMK A01 T04210006  RH  008%=      5-min Rain = 0
KMNS 132115Z 22011G18KT 41/01 A2987 RMK A01 T04140006  RH  008%=      5-min Rain = 0
KMNS 132120Z 23012G22KT 42/01 A2987 RMK A01 T04180008  RH  008%=      5-min Rain = 0
KMNS 132125Z 23016G23KT 42/01 A2987 RMK A01 T04160008  RH  008%=      5-min Rain = 0
KMNS 132130Z 22014G20KT 42/01 A2987 RMK A01 T04170007  RH  008%=      5-min Rain = 0
KMNS 132135Z 21013G20KT 42/01 A2987 RMK A01 T04170006  RH  008%=      5-min Rain = 0
KMNS 132140Z 21012G18KT 42/01 A2987 RMK A01 T04170006  RH  008%=      5-min Rain = 0
KMNS 132145Z 22015G22KT 42/01 A2987 RMK A01 T04220005  RH  008%=      5-min Rain = 0
KMNS 132150Z 22013G21KT 42/01 A2987 RMK A01 T04180005  RH  008%=      5-min Rain = 0
KMNS 132155Z 23013G20KT 40/00 A2987 RMK A01 T04040003  RH  008%=      5-min Rain = 0
KMNS 132200Z 22010KT 41/01 A2987 RMK A01 T04130006  RH  008%=      5-min Rain = 0
KMNS 132205Z 21010KT 42/00 A2986 RMK A01 T04200002  RH  008%=      5-min Rain = 0
KMNS 132210Z 20012G18KT 42/00 A2986 RMK A01 T04230003  RH  008%=      5-min Rain = 0
KMNS 132215Z 19011KT 42/00 A2986 RMK A01 T04200001  RH  008%=      5-min Rain = 0
KMNS 132220Z 21008KT 42/00 A2986 RMK A01 T04210001  RH  008%=      5-min Rain = 0
KMNS 132225Z 24012G19KT 42/00 A2986 RMK A01 T04230003  RH  008%=      5-min Rain = 0
KMNS 132230Z 24012G18KT 42/00 A2986 RMK A01 T04200001  RH  008%=      5-min Rain = 0
KMNS 132235Z 24011G16KT 42/00 A2985 RMK A01 T04200003  RH  008%=      5-min Rain = 0
KMNS 132240Z 25011KT 42/00 A2985 RMK A01 T04170001  RH  008%=      5-min Rain = 0
KMNS 132245Z 25006KT 42/00 A2985 RMK A01 T04170001  RH  008%=      5-min Rain = 0
KMNS 132250Z 23010KT 42/00 A2985 RMK A01 T04210001  RH  008%=      5-min Rain = 0
KMNS 132255Z 22011G17KT 42/00 A2985 RMK A01 T04190001  RH  008%=      5-min Rain = 0
KMNS 132300Z 24009G14KT 42/00 A2985 RMK A01 T04160000  RH  008%=      5-min Rain = 0
KMNS 132305Z 24008G15KT 41/00 A2985 RMK A01 T04070001  RH  008%=      5-min Rain = 0
KMNS 132310Z 24006KT 42/M00 A2984 RMK A01 T04161001  RH  008%=      5-min Rain = 0
KMNS 132315Z 23013G20KT 42/00 A2984 RMK A01 T042000-0  RH  008%=      5-min Rain = 0
KMNS 132320Z 26012KT 42/M00 A2984 RMK A01 T04211001  RH  007%=      5-min Rain = 0
KMNS 132325Z 25008KT 42/M00 A2984 RMK A01 T04221001  RH  007%=      5-min Rain = 0
KMNS 132330Z 23010G16KT 42/M00 A2984 RMK A01 T04241001  RH  007%=      5-min Rain = 0
KMNS 132335Z 22012KT 42/M00 A2984 RMK A01 T04201002  RH  007%=      5-min Rain = 0
KMNS 132340Z 23012KT 42/M00 A2984 RMK A01 T04191003  RH  007%=      5-min Rain = 0
KMNS 132345Z 24013G18KT 42/M00 A2983 RMK A01 T04171004  RH  007%=      5-min Rain = 0
KMNS 132350Z 24011KT 42/M00 A2983 RMK A01 T04171004  RH  007%=      5-min Rain = 0
KMNS 132355Z 24009KT 41/M00 A2983 RMK A01 T04141004  RH  008%=      5-min Rain = 0
KMNS 140000Z 24011KT 41/M00 A2983 RMK A01 T04081002  RH  008%=      5-min Rain = 0
KMNS 140005Z 24013KT 41/M00 A2983 RMK A01 T04091004  RH  008%=      5-min Rain = 0
KMNS 140010Z 24013KT 41/M01 A2983 RMK A01 T04121005  RH  008%=      5-min Rain = 0
KMNS 140015Z 23010KT 41/M00 A2983 RMK A01 T04141002  RH  008%=      5-min Rain = 0
KMNS 140020Z 22012KT 41/M01 A2983 RMK A01 T04131005  RH  008%=      5-min Rain = 0
KMNS 140025Z 23011KT 41/M01 A2983 RMK A01 T04101007  RH  008%=      5-min Rain = 0
KMNS 140030Z 23010KT 41/M00 A2984 RMK A01 T04071003  RH  008%=      5-min Rain = 0
KMNS 140035Z 24014KT 40/M01 A2984 RMK A01 T04041005  RH  008%=      5-min Rain = 0
KMNS 140040Z 24013KT 40/M01 A2984 RMK A01 T04001007  RH  008%=      5-min Rain = 0
KMNS 140045Z 24012KT 40/M01 A2984 RMK A01 T03971006  RH  008%=      5-min Rain = 0
KMNS 140050Z 24011KT 40/M01 A2984 RMK A01 T03951005  RH  008%=      5-min Rain = 0
KMNS 140055Z 24009KT 39/M00 A2984 RMK A01 T03931004  RH  008%=      5-min Rain = 0
KMNS 140100Z 24007KT 39/00 A2984 RMK A01 T039000-0  RH  009%=      5-min Rain = 0
KMNS 140105Z 23007KT 39/00 A2984 RMK A01 T03870001  RH  009%=      5-min Rain = 0
KMNS 140110Z 23006KT 38/00 A2984 RMK A01 T03840004  RH  009%=      5-min Rain = 0
KMNS 140115Z 23006KT 38/01 A2984 RMK A01 T03810007  RH  010%=      5-min Rain = 0
KMNS 140120Z 22006KT 38/01 A2984 RMK A01 T03800007  RH  010%=      5-min Rain = 0
KMNS 140125Z 20008KT 38/01 A2984 RMK A01 T03780010  RH  010%=      5-min Rain = 0
KMNS 140130Z 19009KT 38/01 A2984 RMK A01 T03770007  RH  010%=      5-min Rain = 0
KMNS 140135Z 19009KT 38/00 A2984 RMK A01 T03750003  RH  010%=      5-min Rain = 0
KMNS 140140Z 19010KT 37/00 A2984 RMK A01 T03730003  RH  010%=      5-min Rain = 0
KMNS 140145Z 19008KT 37/01 A2984 RMK A01 T03710006  RH  010%=      5-min Rain = 0
KMNS 140150Z 19007KT 37/01 A2984 RMK A01 T03650011  RH  011%=      5-min Rain = 0
KMNS 140155Z 19008KT 36/01 A2985 RMK A01 T03620011  RH  011%=      5-min Rain = 0
KMNS 140200Z 19009KT 36/01 A2985 RMK A01 T03630009  RH  011%=      5-min Rain = 0
KMNS 140205Z 19008KT 36/01 A2985 RMK A01 T03610008  RH  011%=      5-min Rain = 0
KMNS 140210Z 18011KT 37/M00 A2985 RMK A01 T03661002  RH  010%=      5-min Rain = 0
KMNS 140215Z 18009KT 37/00 A2985 RMK A01 T03650001  RH  010%=      5-min Rain = 0
KMNS 140220Z 19009KT 36/00 A2985 RMK A01 T03610004  RH  011%=      5-min Rain = 0
KMNS 140225Z 18011KT 36/00 A2985 RMK A01 T03590004  RH  011%=      5-min Rain = 0
KMNS 140230Z 19012KT 36/M00 A2985 RMK A01 T03611001  RH  010%=      5-min Rain = 0
KMNS 140235Z 18011KT 36/M00 A2985 RMK A01 T03621002  RH  010%=      5-min Rain = 0
KMNS 140240Z 18012KT 36/M00 A2986 RMK A01 T03601001  RH  010%=      5-min Rain = 0
KMNS 140245Z 19013KT 36/M00 A2986 RMK A01 T03611004  RH  010%=      5-min Rain = 0
KMNS 140250Z 19011KT 36/M00 A2986 RMK A01 T03601002  RH  010%=      5-min Rain = 0
KMNS 140255Z 20008KT 36/00 A2986 RMK A01 T03550004  RH  011%=      5-min Rain = 0
KMNS 140300Z 20008KT 35/00 A2987 RMK A01 T03520004  RH  011%=      5-min Rain = 0
KMNS 140305Z 20008KT 35/01 A2987 RMK A01 T03500005  RH  011%=      5-min Rain = 0
KMNS 140310Z 19008KT 35/01 A2987 RMK A01 T03480006  RH  012%=      5-min Rain = 0
KMNS 140315Z 20008KT 34/01 A2988 RMK A01 T03440008  RH  012%=      5-min Rain = 0
KMNS 140320Z 21008KT 35/01 A2989 RMK A01 T03450007  RH  012%=      5-min Rain = 0
KMNS 140325Z 24009KT 35/01 A299 RMK A01 T03460005  RH  012%=      5-min Rain = 0
KMNS 140330Z 26008KT 35/01 A2991 RMK A01 T03470006  RH  012%=      5-min Rain = 0
KMNS 140335Z 29023G38KT 35/03 A2993 RMK A01 T03450031  RH  014%=      5-min Rain = 0
KMNS 140340Z 31030G38KT 34/07 A2994 RMK A01 T03380073  RH  020%=      5-min Rain = 0
KMNS 140345Z 32025G34KT 33/08 A2994 RMK A01 T03320077  RH  021%=      5-min Rain = 0
KMNS 140350Z 31025G33KT 34/06 A2994 RMK A01 T03390063  RH  019%=      5-min Rain = 0
KMNS 140355Z 33018G26KT 33/08 A2994 RMK A01 T03290080  RH  022%=      5-min Rain = 0
KMNS 140400Z 32019G25KT 33/08 A2994 RMK A01 T03290078  RH  022%=      5-min Rain = 0
KMNS 140405Z 32017G23KT 33/07 A2994 RMK A01 T03330074  RH  021%=      5-min Rain = 0
KMNS 140410Z 33020G29KT 34/07 A2994 RMK A01 T03370066  RH  019%=      5-min Rain = 0
KMNS 140415Z 34017G27KT 34/07 A2994 RMK A01 T03360068  RH  020%=      5-min Rain = 0
KMNS 140420Z 34020G27KT 33/07 A2994 RMK A01 T03320071  RH  020%=      5-min Rain = 0
KMNS 140425Z 35016G21KT 33/07 A2994 RMK A01 T03310070  RH  020%=      5-min Rain = 0
KMNS 140430Z 35013KT 33/07 A2994 RMK A01 T03280071  RH  021%=      5-min Rain = 0
KMNS 140435Z 34017G22KT 33/07 A2995 RMK A01 T03270073  RH  021%=      5-min Rain = 0
KMNS 140440Z 32015KT 32/08 A2995 RMK A01 T03230075  RH  022%=      5-min Rain = 0
KMNS 140445Z 33013KT 32/07 A2995 RMK A01 T03210074  RH  022%=      5-min Rain = 0
KMNS 140450Z 33014KT 32/08 A2995 RMK A01 T03210077  RH  023%=      5-min Rain = 0
KMNS 140455Z 32014KT 32/08 A2995 RMK A01 T03200079  RH  023%=      5-min Rain = 0

Page generated in 0.0155 seconds.